Terminal Aerodrome Forecast
Issued by NWS Newport/Morehead City, NC

Home | Current Version | Previous Version | Graphics & Text | Print | Product List | Glossary On
Versions: 1 2 3 4 5 6 7 8 9 10 11 12 13
000
FTUS42 KMHX 030539
TAFEWN
TAF
KEWN 030539Z 0306/0406 00000KT P6SM SKC
     FM030900 00000KT 4SM BR SKC
     FM031200 27005KT P6SM FEW060=

USA.gov is the U.S. government's official web portal to all federal, state and local government web resources and services.